Time;durP1;ratioP1;P1;durP2;ratioP2;P2;SDS_P1;SDS_P2;PMS_P1;PMS_P2;Temp;Humidity;BMP_temperature;BMP_pressure;BME280_temperature;BME280_humidity;BME280_pressure;Samples;Min_cycle;Max_cycle;Signal;HPM_P1;HPM_P2
2021/06/10 00:00:23;;;;;;;6.38;5.43;;;;;;;16.86;91.03;97210.78;5033155;28;20549;-66
2021/06/10 00:02:50;;;;;;;5.60;4.97;;;;;;;16.79;91.59;97207.53;5032939;28;20194;-65
2021/06/10 00:05:19;;;;;;;6.97;5.55;;;;;;;16.80;91.60;97212.59;5032653;28;20247;-67
2021/06/10 00:07:45;;;;;;;5.60;5.03;;;;;;;16.83;90.87;97212.06;5018392;28;20179;-64
2021/06/10 00:10:13;;;;;;;6.82;5.43;;;;;;;16.84;91.00;97213.66;5032995;28;20665;-64
2021/06/10 00:12:40;;;;;;;6.05;5.45;;;;;;;16.89;90.43;97210.25;5014683;28;20182;-66
2021/06/10 00:15:08;;;;;;;5.50;4.88;;;;;;;16.83;90.39;97200.72;5032655;28;20202;-66
2021/06/10 00:17:34;;;;;;;5.82;5.13;;;;;;;16.86;90.00;97214.22;5031303;28;20849;-64
2021/06/10 00:19:59;;;;;;;6.53;5.90;;;;;;;16.92;89.13;97207.09;5032542;28;20269;-64
2021/06/10 00:22:25;;;;;;;5.93;5.30;;;;;;;16.87;89.49;97207.88;5031907;28;20354;-65
2021/06/10 00:24:51;;;;;;;5.82;5.20;;;;;;;16.85;90.12;97207.31;5032646;28;20187;-64
2021/06/10 00:27:20;;;;;;;5.38;4.85;;;;;;;16.85;90.02;97212.63;5032067;28;20205;-67
2021/06/10 00:29:47;;;;;;;5.70;5.20;;;;;;;16.69;91.48;97212.78;5017736;28;20232;-64
2021/06/10 00:32:14;;;;;;;5.65;5.05;;;;;;;16.73;91.55;97206.72;5032686;28;20186;-64
2021/06/10 00:34:40;;;;;;;6.30;5.70;;;;;;;16.76;91.92;97213.38;5013154;28;20594;-64
2021/06/10 00:37:06;;;;;;;5.93;5.43;;;;;;;16.80;91.75;97215.25;5031888;28;20190;-64
2021/06/10 00:39:31;;;;;;;7.60;5.75;;;;;;;16.76;92.06;97219.47;5031346;28;20248;-64
2021/06/10 00:41:57;;;;;;;6.95;6.25;;;;;;;16.80;91.44;97214.44;5031734;28;20670;-64
2021/06/10 00:44:22;;;;;;;6.65;5.95;;;;;;;16.67;91.94;97210.38;5013673;28;20190;-64
2021/06/10 00:46:48;;;;;;;6.63;5.68;;;;;;;16.65;92.36;97219.66;5032455;28;20179;-64
2021/06/10 00:49:13;;;;;;;6.10;5.50;;;;;;;16.43;93.80;97206.50;5031998;28;20197;-65
2021/06/10 00:51:39;;;;;;;7.30;6.38;;;;;;;16.45;94.00;97212.31;5031550;28;20187;-64
2021/06/10 00:54:05;;;;;;;6.35;5.78;;;;;;;16.53;93.17;97217.16;5014569;28;20182;-64
2021/06/10 00:56:30;;;;;;;11.20;5.68;;;;;;;16.43;93.73;97223.16;5031320;28;20182;-64
2021/06/10 00:58:56;;;;;;;7.40;6.30;;;;;;;16.39;94.14;97213.31;5031523;28;20193;-64
2021/06/10 01:01:21;;;;;;;9.13;5.85;;;;;;;16.38;94.50;97219.69;5031446;28;20182;-64
2021/06/10 01:03:47;;;;;;;6.68;5.97;;;;;;;16.32;94.67;97220.69;5032374;28;20269;-64
2021/06/10 01:06:53;;;;;;;6.68;5.97;;;;;;;16.25;95.25;97220.09;5032187;28;20190;-64
2021/06/10 01:09:44;;;;;;;6.55;5.93;;;;;;;16.18;95.76;97221.09;5030835;28;20272;-64
2021/06/10 01:12:30;;;;;;;6.55;5.93;;;;;;;16.26;95.39;97225.13;5031748;28;20544;-64
2021/06/10 01:15:07;;;;;;;6.47;5.85;;;;;;;16.16;96.58;97217.88;5018504;28;20195;-64
2021/06/10 01:17:43;;;;;;;7.90;5.78;;;;;;;16.25;95.85;97220.09;5030125;28;20261;-64
2021/06/10 01:20:10;;;;;;;6.55;5.90;;;;;;;16.18;96.17;97212.34;5032233;28;20177;-63
2021/06/10 01:22:35;;;;;;;6.90;6.15;;;;;;;16.07;96.67;97219.41;5030808;28;20282;-64
2021/06/10 01:25:22;;;;;;;7.00;6.22;;;;;;;16.16;96.19;97219.75;5031692;28;20647;-64
2021/06/10 01:27:57;;;;;;;6.40;5.80;;;;;;;16.11;96.68;97224.97;5024897;28;20549;-65
2021/06/10 01:30:27;;;;;;;6.63;6.03;;;;;;;16.15;96.09;97223.44;5030765;28;20177;-65
2021/06/10 01:33:07;;;;;;;6.75;6.10;;;;;;;16.09;96.45;97225.25;5031178;28;20262;-64
2021/06/10 01:35:40;;;;;;;6.90;6.20;;;;;;;16.13;96.25;97220.25;5030073;28;20620;-64
2021/06/10 01:38:08;;;;;;;7.03;5.97;;;;;;;16.04;96.74;97219.91;5031639;28;20257;-64
2021/06/10 01:40:34;;;;;;;8.05;5.93;;;;;;;16.04;97.04;97224.41;5030350;28;20182;-64
2021/06/10 01:43:01;;;;;;;7.55;5.82;;;;;;;16.03;96.97;97220.97;5031101;28;20316;-64
2021/06/10 01:45:27;;;;;;;7.60;6.15;;;;;;;16.00;97.06;97210.88;5013139;28;20628;-64
2021/06/10 01:47:53;;;;;;;6.95;5.85;;;;;;;16.03;96.68;97209.59;5031327;28;20179;-64
2021/06/10 01:50:21;;;;;;;6.75;6.05;;;;;;;16.06;96.89;97207.22;5030347;28;20530;-65
2021/06/10 01:52:48;;;;;;;6.18;5.57;;;;;;;16.09;96.18;97208.59;5030860;28;20193;-63
2021/06/10 01:55:20;;;;;;;6.18;5.57;;;;;;;16.09;96.08;97205.94;5030895;28;20206;-66
2021/06/10 01:57:46;;;;;;;7.28;5.90;;;;;;;16.02;96.10;97200.84;5031229;28;20623;-64
2021/06/10 02:00:13;;;;;;;6.68;5.97;;;;;;;15.97;96.55;97200.81;5031392;28;20190;-66
2021/06/10 02:02:40;;;;;;;6.75;6.10;;;;;;;15.98;96.64;97198.97;5030840;28;20182;-64
2021/06/10 02:05:10;;;;;;;6.30;5.65;;;;;;;15.94;96.69;97189.94;5031398;28;20214;-64
2021/06/10 02:07:38;;;;;;;7.68;6.35;;;;;;;15.95;96.53;97192.31;5030532;28;20275;-64
2021/06/10 02:10:06;;;;;;;6.43;5.82;;;;;;;15.93;96.25;97190.97;5034285;28;20191;-65
2021/06/10 02:12:32;;;;;;;6.78;5.57;;;;;;;15.92;96.36;97187.53;5034131;28;20187;-64
2021/06/10 02:15:01;;;;;;;6.00;5.40;;;;;;;15.85;96.72;97186.94;5035220;28;20202;-64
2021/06/10 02:17:26;;;;;;;6.47;5.50;;;;;;;15.82;96.84;97184.81;5033678;28;20187;-64
2021/06/10 02:19:52;;;;;;;6.30;5.70;;;;;;;15.80;96.86;97178.97;5034957;28;20186;-65
2021/06/10 02:22:17;;;;;;;5.80;5.25;;;;;;;15.85;97.10;97183.50;5023942;28;20187;-67
2021/06/10 02:24:43;;;;;;;5.82;5.22;;;;;;;15.87;96.74;97194.63;5028053;28;20194;-64
2021/06/10 02:27:08;;;;;;;5.43;4.93;;;;;;;15.88;96.22;97175.06;5034683;28;20244;-66
2021/06/10 02:29:34;;;;;;;5.70;5.20;;;;;;;15.85;96.34;97184.28;5034231;28;20263;-64
2021/06/10 02:31:59;;;;;;;5.75;5.15;;;;;;;15.83;96.71;97185.59;5034796;28;20258;-64
2021/06/10 02:34:25;;;;;;;6.03;5.43;;;;;;;15.83;96.65;97181.09;5015966;28;20237;-65
2021/06/10 02:36:51;;;;;;;6.28;5.65;;;;;;;15.80;97.08;97182.41;5034467;28;20590;-64
2021/06/10 02:39:18;;;;;;;5.63;5.10;;;;;;;15.77;97.29;97174.94;5034336;28;20194;-67
2021/06/10 02:41:48;;;;;;;6.47;5.85;;;;;;;15.71;97.84;97178.63;5016193;28;20209;-64
2021/06/10 02:44:15;;;;;;;7.43;6.07;;;;;;;15.70;97.95;97184.16;5034355;28;20636;-68
2021/06/10 02:46:41;;;;;;;5.85;4.93;;;;;;;15.78;97.80;97187.13;5034396;28;20179;-64
2021/06/10 02:49:09;;;;;;;6.95;6.30;;;;;;;15.81;97.30;97183.19;5034612;28;20588;-63
2021/06/10 02:51:36;;;;;;;6.38;5.78;;;;;;;15.74;97.95;97180.75;5015833;28;20206;-64
2021/06/10 02:54:04;;;;;;;6.50;5.82;;;;;;;15.73;97.79;97184.44;5034906;28;20209;-64
2021/06/10 02:56:30;;;;;;;6.57;5.90;;;;;;;15.69;97.95;97179.91;5033590;28;20186;-64
2021/06/10 02:59:00;;;;;;;6.43;5.63;;;;;;;15.53;98.83;97183.44;5034565;28;20182;-65
2021/06/10 03:01:26;;;;;;;6.40;5.72;;;;;;;15.67;97.85;97174.84;5015605;28;20183;-64
2021/06/10 03:03:51;;;;;;;7.00;6.40;;;;;;;15.65;98.02;97173.53;5034381;28;20197;-64
2021/06/10 03:06:18;;;;;;;7.45;6.18;;;;;;;15.61;98.30;97177.69;5033447;28;20193;-67
2021/06/10 03:08:50;;;;;;;6.40;5.75;;;;;;;15.55;98.60;97174.19;5033976;28;20183;-64
2021/06/10 03:11:16;;;;;;;7.28;5.75;;;;;;;15.57;98.28;97179.25;5033916;28;20175;-67
2021/06/10 03:13:43;;;;;;;6.85;6.15;;;;;;;15.56;98.36;97173.16;5026334;28;20182;-64
2021/06/10 03:16:10;;;;;;;6.28;5.63;;;;;;;15.64;97.89;97174.56;5033847;28;20206;-63
2021/06/10 03:18:36;;;;;;;6.50;5.90;;;;;;;15.43;98.97;97173.53;5015921;28;20186;-64
2021/06/10 03:21:04;;;;;;;7.57;6.23;;;;;;;15.48;98.56;97178.88;5032970;28;20262;-64
2021/06/10 03:23:30;;;;;;;7.38;6.65;;;;;;;15.45;98.75;97181.19;5032885;28;20202;-65
2021/06/10 03:25:56;;;;;;;7.22;6.53;;;;;;;15.36;99.12;97171.06;5016408;28;20182;-64
2021/06/10 03:28:23;;;;;;;7.30;6.43;;;;;;;15.35;99.66;97180.03;5033024;28;20183;-65
2021/06/10 03:30:48;;;;;;;6.57;5.85;;;;;;;15.32;100.00;97180.50;5033801;28;20186;-64
2021/06/10 03:33:15;;;;;;;7.45;6.63;;;;;;;15.33;99.65;97171.56;5015636;28;20309;-65
2021/06/10 03:35:41;;;;;;;7.20;6.50;;;;;;;15.49;99.03;97177.81;5024493;28;20206;-65
2021/06/10 03:38:06;;;;;;;8.73;6.70;;;;;;;15.50;98.25;97182.03;5033479;28;20650;-64
2021/06/10 03:40:33;;;;;;;7.20;6.50;;;;;;;15.42;98.49;97179.84;5032507;28;20190;-64
2021/06/10 03:43:01;;;;;;;10.13;7.35;;;;;;;15.30;99.43;97185.25;5033427;28;20656;-64
2021/06/10 03:45:27;;;;;;;8.63;7.03;;;;;;;15.25;99.94;97174.66;5014780;28;20191;-64
2021/06/10 03:47:53;;;;;;;9.48;7.13;;;;;;;15.30;100.00;97184.47;5033485;28;20186;-64
2021/06/10 03:50:18;;;;;;;7.90;6.67;;;;;;;15.48;98.92;97178.06;5032316;28;20205;-67
2021/06/10 03:52:44;;;;;;;7.93;6.90;;;;;;;15.70;97.29;97181.50;5032911;28;20178;-64
2021/06/10 03:55:11;;;;;;;8.40;6.32;;;;;;;15.69;97.95;97185.19;5033023;28;20195;-64
2021/06/10 03:57:37;;;;;;;7.57;6.78;;;;;;;15.85;97.57;97181.66;5032767;28;20317;-64
2021/06/10 04:00:08;;;;;;;9.73;6.85;;;;;;;15.98;96.43;97175.16;5033222;28;20643;-64
2021/06/10 04:02:33;;;;;;;7.32;6.40;;;;;;;16.18;95.36;97175.31;5031726;28;20675;-64
2021/06/10 04:04:59;;;;;;;7.05;6.15;;;;;;;16.38;94.35;97178.16;5032858;28;20202;-63
2021/06/10 04:07:26;;;;;;;9.35;6.55;;;;;;;16.54;92.49;97179.06;5032284;28;20190;-64
2021/06/10 04:09:51;;;;;;;7.28;6.55;;;;;;;16.61;91.91;97183.09;5032864;28;20190;-63
2021/06/10 04:12:16;;;;;;;9.55;7.10;;;;;;;16.64;91.95;97181.78;5032371;28;20240;-68
2021/06/10 04:14:42;;;;;;;9.05;6.90;;;;;;;16.82;90.78;97180.56;5014801;28;20691;-64
2021/06/10 04:17:07;;;;;;;9.48;6.80;;;;;;;16.84;90.10;97178.44;5015195;28;20269;-66
2021/06/10 04:19:33;;;;;;;10.27;7.05;;;;;;;16.90;90.46;97185.38;5032063;28;20305;-64
2021/06/10 04:21:58;;;;;;;7.25;6.55;;;;;;;17.04;89.82;97186.53;5033230;28;20221;-65
2021/06/10 04:24:23;;;;;;;7.30;5.85;;;;;;;17.23;87.93;97186.84;5031483;28;20227;-64
2021/06/10 04:26:49;;;;;;;6.18;5.57;;;;;;;17.22;87.95;97185.28;5032964;28;20183;-64
2021/06/10 04:29:15;;;;;;;6.07;5.43;;;;;;;17.35;86.27;97182.13;5032865;28;20187;-65
2021/06/10 04:31:40;;;;;;;6.00;5.00;;;;;;;17.37;85.10;97177.38;5032488;28;20269;-64
2021/06/10 04:34:06;;;;;;;6.72;4.65;;;;;;;17.31;85.02;97184.53;5032067;28;20235;-64
2021/06/10 04:36:31;;;;;;;5.10;4.60;;;;;;;17.38;84.64;97178.97;5013629;28;20183;-63
2021/06/10 04:38:57;;;;;;;6.88;5.10;;;;;;;17.38;84.88;97186.94;5032622;28;20190;-64
2021/06/10 04:41:22;;;;;;;5.40;4.90;;;;;;;17.56;84.48;97191.75;5031360;28;20190;-65
2021/06/10 04:43:48;;;;;;;4.80;4.40;;;;;;;17.79;83.27;97186.00;5031907;28;20241;-66
2021/06/10 04:46:13;;;;;;;5.32;4.82;;;;;;;17.81;82.43;97180.44;5032503;28;20680;-65
2021/06/10 04:48:38;;;;;;;5.68;5.03;;;;;;;18.03;81.62;97188.97;5031593;28;20194;-64
2021/06/10 04:51:05;;;;;;;5.22;4.70;;;;;;;18.21;80.90;97188.47;5014620;28;20647;-64
2021/06/10 04:53:31;;;;;;;5.43;4.93;;;;;;;18.31;79.74;97190.31;5031263;28;20654;-64
2021/06/10 04:55:56;;;;;;;5.60;5.07;;;;;;;18.56;79.05;97182.34;5031913;28;20211;-65
2021/06/10 04:58:22;;;;;;;5.18;4.68;;;;;;;18.75;77.99;97195.06;5030962;28;20581;-65
2021/06/10 05:00:47;;;;;;;5.15;4.72;;;;;;;18.95;77.04;97187.06;5032118;28;20564;-64
2021/06/10 05:03:12;;;;;;;5.50;4.97;;;;;;;19.14;76.04;97193.38;5031782;28;20194;-65
2021/06/10 05:05:39;;;;;;;5.65;5.07;;;;;;;19.26;75.41;97185.09;5030767;28;20899;-64
2021/06/10 05:08:05;;;;;;;6.03;5.43;;;;;;;19.45;74.52;97178.94;5032139;28;20217;-64
2021/06/10 05:10:31;;;;;;;7.00;6.28;;;;;;;19.66;73.63;97186.81;5030717;28;20179;-65
2021/06/10 05:12:56;;;;;;;6.30;5.70;;;;;;;19.67;72.86;97183.88;5031783;28;20187;-63
2021/06/10 05:15:21;;;;;;;5.57;5.07;;;;;;;19.93;72.17;97185.31;5029935;28;20272;-64
2021/06/10 05:17:47;;;;;;;5.68;5.18;;;;;;;19.99;71.72;97182.63;5031921;28;20260;-64
2021/06/10 05:20:13;;;;;;;5.68;5.07;;;;;;;20.01;71.92;97181.25;5031849;28;20523;-63
2021/06/10 05:22:38;;;;;;;5.85;5.32;;;;;;;20.20;71.28;97184.06;5030536;28;20766;-64
2021/06/10 05:25:05;;;;;;;5.63;5.03;;;;;;;20.33;70.53;97186.13;5031347;28;20186;-64
2021/06/10 05:27:33;;;;;;;5.38;4.85;;;;;;;20.51;70.18;97188.09;5030975;28;20556;-64
2021/06/10 05:29:59;;;;;;;8.32;4.95;;;;;;;20.67;69.21;97192.19;5031911;28;20183;-65
2021/06/10 05:32:24;;;;;;;6.80;5.13;;;;;;;20.92;68.40;97179.72;5030413;28;20186;-65
2021/06/10 05:34:50;;;;;;;5.72;5.13;;;;;;;20.93;68.01;97181.31;5031097;28;20269;-65
2021/06/10 05:37:15;;;;;;;5.70;5.20;;;;;;;21.09;67.80;97186.19;5031338;28;20182;-65
2021/06/10 05:39:40;;;;;;;5.18;4.55;;;;;;;21.11;67.83;97177.91;5030877;28;20190;-66
2021/06/10 05:42:06;;;;;;;5.65;5.15;;;;;;;21.18;67.53;97182.94;5031891;28;20194;-65
2021/06/10 05:44:31;;;;;;;4.80;4.38;;;;;;;21.27;67.73;97186.56;5030186;28;20224;-66
2021/06/10 05:46:57;;;;;;;5.47;4.97;;;;;;;21.64;66.65;97180.47;5031545;28;20709;-66
2021/06/10 05:49:22;;;;;;;6.57;4.90;;;;;;;21.74;65.86;97188.34;5030253;28;20185;-67
2021/06/10 05:51:48;;;;;;;5.50;4.43;;;;;;;22.11;64.08;97184.91;5031242;28;20187;-66
2021/06/10 05:54:13;;;;;;;4.88;4.47;;;;;;;22.31;63.60;97192.59;5013057;28;20216;-67
2021/06/10 05:56:38;;;;;;;4.68;4.28;;;;;;;22.34;63.07;97187.47;5030330;28;20648;-66
2021/06/10 05:59:04;;;;;;;5.05;4.55;;;;;;;22.42;63.27;97190.53;5013778;28;20240;-66
2021/06/10 06:01:29;;;;;;;4.80;4.30;;;;;;;22.68;62.64;97195.16;5030059;28;20179;-66
2021/06/10 06:03:55;;;;;;;4.82;3.97;;;;;;;22.56;63.67;97200.22;5031318;28;20336;-66
2021/06/10 06:06:20;;;;;;;4.90;4.45;;;;;;;23.02;61.53;97194.06;5012316;28;20245;-68
2021/06/10 06:08:47;;;;;;;4.38;3.92;;;;;;;23.06;61.26;97200.41;5030652;28;20291;-67
2021/06/10 06:11:13;;;;;;;5.35;4.63;;;;;;;23.01;61.27;97195.97;5013476;28;20194;-66
2021/06/10 06:13:48;;;;;;;4.60;4.20;;;;;;;23.28;60.89;97203.19;5030560;28;20201;-66
2021/06/10 06:16:19;;;;;;;5.72;4.80;;;;;;;23.43;60.84;97199.41;5012747;28;20218;-66
2021/06/10 06:18:44;;;;;;;5.50;4.97;;;;;;;23.53;60.02;97205.38;5013106;28;20289;-66
2021/06/10 06:21:12;;;;;;;5.03;4.28;;;;;;;23.63;59.68;97206.28;5030976;28;20598;-67
2021/06/10 06:23:37;;;;;;;4.82;3.85;;;;;;;23.72;59.43;97210.63;5029310;28;20369;-66
2021/06/10 06:26:03;;;;;;;4.45;4.05;;;;;;;23.83;58.84;97211.19;5030660;28;20644;-66
2021/06/10 06:28:29;;;;;;;4.43;3.97;;;;;;;23.72;58.43;97205.28;5030042;28;20182;-66
2021/06/10 06:30:54;;;;;;;4.82;4.32;;;;;;;23.97;57.98;97204.69;5029038;28;20546;-66
2021/06/10 06:33:20;;;;;;;4.82;4.32;;;;;;;24.11;57.82;97211.91;5024668;28;20222;-68
2021/06/10 06:35:46;;;;;;;4.32;3.92;;;;;;;24.24;57.47;97214.56;5011281;28;20248;-64
2021/06/10 06:38:12;;;;;;;5.22;4.57;;;;;;;24.25;57.69;97212.66;5029480;28;20186;-66
2021/06/10 06:40:38;;;;;;;4.60;4.20;;;;;;;24.38;58.80;97215.31;5025668;28;20967;-64
2021/06/10 06:43:05;;;;;;;4.90;4.40;;;;;;;24.51;57.73;97202.94;5029569;28;20304;-64
2021/06/10 06:45:31;;;;;;;4.57;4.13;;;;;;;24.29;58.36;97217.13;5028280;28;20566;-64
2021/06/10 06:47:56;;;;;;;4.53;4.13;;;;;;;24.36;58.13;97212.13;5029803;28;20191;-64
2021/06/10 06:50:22;;;;;;;4.10;3.67;;;;;;;24.48;56.89;97210.78;5029004;28;20186;-66
2021/06/10 06:52:47;;;;;;;4.07;3.78;;;;;;;24.65;56.90;97219.75;5029411;28;20293;-65
2021/06/10 06:55:13;;;;;;;4.78;4.10;;;;;;;24.41;57.74;97220.03;5015681;28;20202;-64
2021/06/10 06:57:38;;;;;;;5.32;4.80;;;;;;;24.46;58.55;97221.84;5032767;28;20280;-64
2021/06/10 07:00:05;;;;;;;5.07;4.65;;;;;;;23.98;59.55;97211.63;5025392;28;20189;-64
2021/06/10 07:02:31;;;;;;;4.90;4.38;;;;;;;24.20;58.76;97220.81;5032813;28;20723;-64
2021/06/10 07:04:56;;;;;;;6.18;5.28;;;;;;;23.29;61.09;97233.44;5015702;28;20273;-67
2021/06/10 07:07:22;;;;;;;5.07;4.68;;;;;;;22.46;64.41;97231.66;5032718;28;20249;-66
2021/06/10 07:09:47;;;;;;;6.03;5.43;;;;;;;22.57;63.76;97233.84;5032921;28;20189;-64
2021/06/10 07:12:12;;;;;;;5.05;4.60;;;;;;;22.31;65.41;97230.78;5033362;28;20574;-64
2021/06/10 07:14:38;;;;;;;5.53;4.97;;;;;;;22.96;64.05;97233.47;5031879;28;20289;-67
2021/06/10 07:17:03;;;;;;;5.25;4.75;;;;;;;23.32;62.96;97235.50;5033646;28;20190;-66
2021/06/10 07:19:29;;;;;;;5.43;4.85;;;;;;;23.33;62.49;97234.41;5032710;28;20233;-65
2021/06/10 07:21:54;;;;;;;5.97;4.63;;;;;;;22.92;63.79;97237.81;5031723;28;20191;-67
2021/06/10 07:24:20;;;;;;;7.10;5.15;;;;;;;22.32;65.59;97234.25;5014249;28;20270;-68
2021/06/10 07:26:46;;;;;;;6.15;4.88;;;;;;;22.86;64.90;97246.22;5031766;28;20542;-65
2021/06/10 07:29:15;;;;;;;8.48;5.55;;;;;;;23.05;64.22;97233.59;5015350;28;20186;-66
2021/06/10 07:31:42;;;;;;;6.07;5.47;;;;;;;23.28;63.50;97243.34;5031810;28;20195;-66
2021/06/10 07:34:07;;;;;;;5.75;5.15;;;;;;;23.07;63.55;97237.53;5031744;28;20647;-66
2021/06/10 07:36:34;;;;;;;5.38;4.82;;;;;;;22.93;65.59;97247.44;5030723;28;20301;-65
2021/06/10 07:39:00;;;;;;;5.22;4.82;;;;;;;23.33;63.96;97237.88;5032936;28;20183;-66
2021/06/10 07:41:26;;;;;;;6.30;4.70;;;;;;;23.42;63.46;97246.00;5031933;28;20705;-65
2021/06/10 07:43:52;;;;;;;5.40;4.72;;;;;;;23.76;62.03;97245.59;5032238;28;20187;-65
2021/06/10 07:46:17;;;;;;;5.35;4.78;;;;;;;23.85;61.81;97246.50;5032796;28;20191;-65
2021/06/10 07:48:43;;;;;;;7.65;4.60;;;;;;;24.02;61.29;97243.97;5014621;28;20182;-65
2021/06/10 07:51:08;;;;;;;5.32;4.82;;;;;;;24.15;61.34;97242.34;5032996;28;20262;-66
2021/06/10 07:53:35;;;;;;;7.72;5.28;;;;;;;24.44;59.97;97253.50;5031145;28;20670;-67
2021/06/10 07:56:03;;;;;;;4.80;4.40;;;;;;;24.62;59.50;97249.06;5032311;28;20210;-66
2021/06/10 07:58:29;;;;;;;5.25;4.75;;;;;;;24.23;60.27;97241.66;5031917;28;20193;-65
2021/06/10 08:00:54;;;;;;;4.97;4.57;;;;;;;24.34;59.77;97243.03;5033077;28;20190;-65
2021/06/10 08:03:21;;;;;;;4.78;4.20;;;;;;;24.65;59.43;97245.75;5032741;28;20187;-65
2021/06/10 08:05:47;;;;;;;5.10;4.60;;;;;;;24.40;59.76;97239.91;5031186;28;20209;-66
2021/06/10 08:08:13;;;;;;;5.22;4.72;;;;;;;24.61;59.39;97242.91;5032002;28;20627;-66
2021/06/10 08:10:39;;;;;;;5.57;5.07;;;;;;;23.92;60.58;97242.31;5031805;28;20191;-65
2021/06/10 08:13:04;;;;;;;5.38;4.88;;;;;;;23.71;60.82;97245.72;5025469;28;20189;-65
2021/06/10 08:15:30;;;;;;;6.63;5.68;;;;;;;23.07;61.56;97242.88;5030565;28;20202;-65
2021/06/10 08:17:55;;;;;;;5.50;5.00;;;;;;;23.39;61.49;97234.00;5031127;28;20200;-65
2021/06/10 08:20:20;;;;;;;6.00;5.40;;;;;;;23.33;61.79;97239.75;5031160;28;20635;-66
2021/06/10 08:22:46;;;;;;;8.63;5.22;;;;;;;23.39;62.05;97238.56;5031837;28;20248;-65
2021/06/10 08:25:12;;;;;;;6.20;5.60;;;;;;;22.94;63.26;97234.88;5031999;28;20276;-68
2021/06/10 08:27:38;;;;;;;7.07;5.82;;;;;;;22.86;63.86;97236.31;5023688;28;20198;-65
2021/06/10 08:30:05;;;;;;;5.15;4.65;;;;;;;23.42;63.18;97233.41;5014193;28;20274;-65
2021/06/10 08:32:30;;;;;;;5.72;5.00;;;;;;;23.67;62.23;97231.34;5030665;28;20194;-66
2021/06/10 08:34:56;;;;;;;5.93;5.32;;;;;;;23.79;61.49;97226.28;5030831;28;20610;-66
2021/06/10 08:37:21;;;;;;;5.57;5.07;;;;;;;23.95;60.80;97233.69;5030826;28;20213;-67
2021/06/10 08:39:47;;;;;;;6.45;5.85;;;;;;;23.95;61.10;97224.84;5031150;28;20182;-65
2021/06/10 08:42:12;;;;;;;6.43;5.82;;;;;;;24.02;60.59;97233.25;5031705;28;20183;-66
2021/06/10 08:44:39;;;;;;;6.30;5.70;;;;;;;23.51;61.64;97236.22;5031182;28;21496;-66
2021/06/10 08:47:07;;;;;;;7.45;6.57;;;;;;;23.35;62.65;97235.69;5031772;28;20232;-66
2021/06/10 08:49:32;;;;;;;5.80;5.30;;;;;;;23.84;61.91;97226.97;5012648;28;20196;-66
2021/06/10 08:51:58;;;;;;;6.50;5.88;;;;;;;23.59;61.43;97232.84;5013418;28;20195;-66
2021/06/10 08:54:23;;;;;;;5.45;4.90;;;;;;;23.58;62.01;97229.38;5012585;28;20627;-67
2021/06/10 08:56:49;;;;;;;6.50;5.90;;;;;;;23.11;62.60;97229.75;5031148;28;20647;-66
2021/06/10 08:59:14;;;;;;;7.00;6.10;;;;;;;23.02;62.96;97231.50;5031271;28;20213;-66
2021/06/10 09:01:43;;;;;;;5.82;5.32;;;;;;;23.17;62.77;97226.69;5030531;28;20198;-66
2021/06/10 09:04:09;;;;;;;6.15;5.55;;;;;;;23.65;62.03;97230.84;5031652;28;20190;-66
2021/06/10 09:06:46;;;;;;;5.30;4.80;;;;;;;23.98;61.51;97225.03;5030115;28;20725;-66
2021/06/10 09:09:12;;;;;;;6.70;5.53;;;;;;;23.83;59.96;97221.91;5030863;28;20558;-66
2021/06/10 09:11:38;;;;;;;5.72;5.22;;;;;;;24.15;59.55;97229.75;5030742;28;20202;-66
2021/06/10 09:14:08;;;;;;;5.28;4.78;;;;;;;24.37;59.25;97218.28;5031033;28;20567;-66
2021/06/10 09:16:38;;;;;;;6.45;5.55;;;;;;;24.47;58.02;97222.59;5030384;28;20659;-66
2021/06/10 09:19:11;;;;;;;6.10;5.50;;;;;;;24.41;58.51;97224.59;5030560;28;20186;-66
2021/06/10 09:21:42;;;;;;;6.38;5.78;;;;;;;24.49;58.23;97231.13;5030213;28;20252;-66
2021/06/10 09:24:27;;;;;;;7.55;5.93;;;;;;;24.34;58.25;97230.41;5031235;28;20221;-66
2021/06/10 09:27:02;;;;;;;8.60;6.18;;;;;;;24.22;58.51;97230.16;5026630;28;20196;-67
2021/06/10 09:29:50;;;;;;;8.85;7.95;;;;;;;24.08;58.40;97234.72;5029923;28;20182;-66
2021/06/10 09:32:25;;;;;;;7.20;6.47;;;;;;;23.96;59.09;97231.81;5030876;28;20181;-66
2021/06/10 09:34:57;;;;;;;7.25;6.55;;;;;;;24.18;58.55;97234.53;5030142;28;20237;-66
2021/06/10 09:37:34;;;;;;;9.70;7.88;;;;;;;24.01;58.20;97231.69;5030230;28;20567;-67
2021/06/10 09:40:17;;;;;;;7.45;6.72;;;;;;;24.05;57.96;97227.31;5030367;28;20277;-66
2021/06/10 09:42:45;;;;;;;8.25;6.72;;;;;;;23.87;58.87;97221.00;5030013;28;20261;-66
2021/06/10 09:45:16;;;;;;;8.80;7.55;;;;;;;23.89;57.56;97218.81;5030571;28;20200;-66
2021/06/10 09:47:47;;;;;;;6.82;6.13;;;;;;;23.80;57.29;97225.16;5030207;28;20595;-66
2021/06/10 09:50:33;;;;;;;8.10;7.30;;;;;;;23.73;57.74;97219.44;5030998;28;20689;-66
2021/06/10 09:53:04;;;;;;;9.15;8.20;;;;;;;23.91;56.87;97218.50;5030467;28;20206;-66
2021/06/10 09:55:51;;;;;;;8.10;7.30;;;;;;;23.77;57.63;97215.06;5029105;28;20286;-66
2021/06/10 09:58:17;;;;;;;7.65;6.85;;;;;;;23.79;58.20;97215.56;5029165;28;20636;-66
2021/06/10 10:00:45;;;;;;;7.60;6.80;;;;;;;23.81;57.23;97208.00;5029438;28;20186;-66
2021/06/10 10:03:10;;;;;;;8.00;7.15;;;;;;;24.18;56.16;97215.00;5030609;28;20213;-66
2021/06/10 10:05:36;;;;;;;8.10;7.32;;;;;;;24.13;56.43;97207.81;5012141;28;20190;-66
2021/06/10 10:08:01;;;;;;;8.35;7.45;;;;;;;23.91;56.02;97205.91;5030383;28;20234;-65
2021/06/10 10:10:27;;;;;;;7.93;6.68;;;;;;;24.13;55.17;97201.69;5029512;28;20585;-67
2021/06/10 10:12:53;;;;;;;7.22;6.53;;;;;;;24.15;56.45;97200.28;5029600;28;20273;-71
2021/06/10 10:15:19;;;;;;;8.43;7.53;;;;;;;23.67;57.12;97201.91;5029369;28;20653;-68
2021/06/10 10:17:48;;;;;;;9.30;7.75;;;;;;;23.58;57.55;97204.47;5011832;28;20289;-69
2021/06/10 10:20:15;;;;;;;7.85;6.93;;;;;;;23.54;57.91;97206.19;5030361;28;20187;-70
2021/06/10 10:22:43;;;;;;;8.25;7.10;;;;;;;24.02;56.73;97193.06;5029318;28;20190;-70
2021/06/10 10:25:08;;;;;;;9.43;7.43;;;;;;;24.33;55.56;97199.34;5029881;28;20183;-69
2021/06/10 10:27:35;;;;;;;8.60;7.53;;;;;;;24.05;56.43;97195.16;5011807;28;20186;-69
2021/06/10 10:30:01;;;;;;;9.18;7.95;;;;;;;23.88;56.78;97190.44;5013616;28;20631;-68
2021/06/10 10:32:28;;;;;;;8.98;8.13;;;;;;;23.83;56.16;97200.47;5033222;28;20550;-65
2021/06/10 10:34:59;;;;;;;8.02;7.22;;;;;;;23.92;56.33;97195.97;5034107;28;20226;-68
2021/06/10 10:37:27;;;;;;;9.55;8.55;;;;;;;23.79;54.18;97194.16;5033592;28;20174;-65
2021/06/10 10:39:55;;;;;;;9.77;7.63;;;;;;;23.82;54.24;97190.84;5033877;28;20190;-73
2021/06/10 10:42:28;;;;;;;8.10;7.32;;;;;;;24.11;54.09;97185.91;5033362;28;20221;-69
2021/06/10 10:45:19;;;;;;;9.32;8.38;;;;;;;23.97;53.12;97185.94;5034178;28;20321;-69
2021/06/10 10:50:41;;;;;;;10.95;8.23;;;;;;;24.20;52.32;97186.78;5033113;28;20171;-65
2021/06/10 10:53:25;;;;;;;7.97;7.18;;;;;;;24.65;50.64;97174.16;5033936;28;20186;-71
2021/06/10 10:56:09;;;;;;;8.30;7.38;;;;;;;24.92;51.96;97165.16;5015541;28;20198;-70
2021/06/10 10:58:35;;;;;;;8.55;7.30;;;;;;;24.95;52.73;97163.78;5015294;28;20647;-68
2021/06/10 11:01:05;;;;;;;8.13;7.32;;;;;;;25.00;52.79;97166.31;5034127;28;20599;-69
2021/06/10 11:03:32;;;;;;;11.05;8.18;;;;;;;24.39;52.68;97168.66;5015079;28;20195;-67
2021/06/10 11:06:01;;;;;;;8.52;7.70;;;;;;;24.50;51.63;97160.34;5033578;28;20504;-67
2021/06/10 11:09:10;;;;;;;8.57;7.18;;;;;;;24.95;51.61;97166.44;5032978;28;20202;-66
2021/06/10 11:11:52;;;;;;;7.63;6.78;;;;;;;25.23;51.50;97149.03;5032867;28;20181;-68
2021/06/10 11:14:50;;;;;;;8.57;7.15;;;;;;;24.92;53.03;97154.44;5033280;28;20189;-68
2021/06/10 11:17:19;;;;;;;7.05;6.35;;;;;;;25.40;51.54;97159.81;5033823;28;20624;-67
2021/06/10 11:19:54;;;;;;;7.32;6.72;;;;;;;25.43;50.40;97147.66;5032620;28;20435;-68
2021/06/10 11:22:42;;;;;;;8.20;7.40;;;;;;;25.27;50.14;97149.97;5033313;28;20589;-67
2021/06/10 11:25:11;;;;;;;7.63;6.93;;;;;;;25.02;50.79;97148.78;5032770;28;20490;-67
2021/06/10 11:27:47;;;;;;;10.20;7.80;;;;;;;24.80;52.24;97149.63;5030876;28;20278;-68
2021/06/10 11:30:27;;;;;;;8.63;7.82;;;;;;;24.90;53.07;97142.44;5020258;28;20174;-68
2021/06/10 11:33:02;;;;;;;8.80;7.80;;;;;;;25.20;52.48;97138.91;5033327;28;20202;-67
2021/06/10 11:35:44;;;;;;;8.15;7.05;;;;;;;25.56;52.30;97134.13;5031782;28;20285;-67
2021/06/10 11:38:24;;;;;;;9.25;7.15;;;;;;;25.61;52.45;97135.88;5032855;28;20190;-68
2021/06/10 11:41:01;;;;;;;8.45;7.53;;;;;;;26.04;51.71;97136.66;5032378;28;20257;-70